Abbott, New Mexico
Current Conditions -  °F | °C
As of 9:53 AM on Friday 19 Dec 2014 (Local Time) from KRTN Reporting Station
Clear Clear  
Wind Chill: 30°   Ceiling: Unl
Heat Index: 34°   Visibility: 10mi
Dew Point: 25°   Wind: 5mph
Humidity: 70%   Direction: 60°ENE
Pressure: 30.11"   Gusts: NA
Location:  36.3883°N, 104.381°W
Report Text: KRTN 191653Z AUTO 06004KT 10SM CLR 01/M04 A3011 RMK AO2 SLP199 T00111039
Loading
Personal Weather Stations






























Interactive Weather Map New forecast layout! Learn more

10-Day Weather Forecast

Advertisements
Track Severe Weather on mobile